sensor_id;sensor_type;location;lat;lon;timestamp;P1;durP1;ratioP1;P2;durP2;ratioP2
67140;SDS011;54058;52.010;5.546;2023-03-01T00:01:06;9.93;;;6.07;;
67140;SDS011;54058;52.010;5.546;2023-03-01T00:03:34;7.78;;;5.93;;
67140;SDS011;54058;52.010;5.546;2023-03-01T00:06:00;12.77;;;6.72;;
67140;SDS011;54058;52.010;5.546;2023-03-01T00:08:26;10.88;;;6.72;;
67140;SDS011;54058;52.010;5.546;2023-03-01T00:11:02;12.77;;;6.65;;
67140;SDS011;54058;52.010;5.546;2023-03-01T00:13:28;11.88;;;6.57;;
67140;SDS011;54058;52.010;5.546;2023-03-01T00:15:54;11.98;;;6.72;;
67140;SDS011;54058;52.010;5.546;2023-03-01T00:18:19;11.48;;;6.28;;
67140;SDS011;54058;52.010;5.546;2023-03-01T00:20:55;13.68;;;6.75;;
67140;SDS011;54058;52.010;5.546;2023-03-01T00:23:22;10.82;;;6.07;;
67140;SDS011;54058;52.010;5.546;2023-03-01T00:25:48;11.40;;;7.22;;
67140;SDS011;54058;52.010;5.546;2023-03-01T00:28:14;11.00;;;6.63;;
67140;SDS011;54058;52.010;5.546;2023-03-01T00:30:40;15.93;;;6.93;;
67140;SDS011;54058;52.010;5.546;2023-03-01T00:33:06;12.18;;;6.40;;
67140;SDS011;54058;52.010;5.546;2023-03-01T00:35:32;14.73;;;6.88;;
67140;SDS011;54058;52.010;5.546;2023-03-01T00:37:58;10.32;;;6.70;;
67140;SDS011;54058;52.010;5.546;2023-03-01T00:40:25;10.23;;;6.65;;
67140;SDS011;54058;52.010;5.546;2023-03-01T00:42:55;11.85;;;6.38;;
67140;SDS011;54058;52.010;5.546;2023-03-01T00:45:20;9.48;;;5.78;;
67140;SDS011;54058;52.010;5.546;2023-03-01T00:47:46;11.18;;;7.13;;
67140;SDS011;54058;52.010;5.546;2023-03-01T00:50:14;12.90;;;7.15;;
67140;SDS011;54058;52.010;5.546;2023-03-01T00:52:40;14.27;;;7.28;;
67140;SDS011;54058;52.010;5.546;2023-03-01T00:55:05;11.48;;;6.82;;
67140;SDS011;54058;52.010;5.546;2023-03-01T00:57:31;10.93;;;6.30;;
67140;SDS011;54058;52.010;5.546;2023-03-01T00:59:58;11.77;;;6.70;;
67140;SDS011;54058;52.010;5.546;2023-03-01T01:02:23;11.05;;;7.20;;
67140;SDS011;54058;52.010;5.546;2023-03-01T01:04:49;11.50;;;6.53;;
67140;SDS011;54058;52.010;5.546;2023-03-01T01:07:15;13.15;;;6.72;;
67140;SDS011;54058;52.010;5.546;2023-03-01T01:09:41;15.65;;;6.63;;
67140;SDS011;54058;52.010;5.546;2023-03-01T01:12:07;14.45;;;6.85;;
67140;SDS011;54058;52.010;5.546;2023-03-01T01:14:33;11.88;;;7.07;;
67140;SDS011;54058;52.010;5.546;2023-03-01T01:16:59;11.77;;;6.50;;
67140;SDS011;54058;52.010;5.546;2023-03-01T01:19:25;11.75;;;7.32;;
67140;SDS011;54058;52.010;5.546;2023-03-01T01:21:51;10.18;;;6.72;;
67140;SDS011;54058;52.010;5.546;2023-03-01T01:24:18;11.50;;;7.00;;
67140;SDS011;54058;52.010;5.546;2023-03-01T01:26:43;10.75;;;6.90;;
67140;SDS011;54058;52.010;5.546;2023-03-01T01:29:10;13.70;;;6.88;;
67140;SDS011;54058;52.010;5.546;2023-03-01T01:31:36;13.35;;;7.30;;
67140;SDS011;54058;52.010;5.546;2023-03-01T01:34:04;13.02;;;6.35;;
67140;SDS011;54058;52.010;5.546;2023-03-01T01:36:32;13.95;;;7.53;;
67140;SDS011;54058;52.010;5.546;2023-03-01T01:38:58;12.30;;;7.00;;
67140;SDS011;54058;52.010;5.546;2023-03-01T01:41:25;11.48;;;6.82;;
67140;SDS011;54058;52.010;5.546;2023-03-01T01:46:37;14.20;;;7.80;;
67140;SDS011;54058;52.010;5.546;2023-03-01T01:49:16;10.32;;;6.55;;
67140;SDS011;54058;52.010;5.546;2023-03-01T01:51:47;11.70;;;7.20;;
67140;SDS011;54058;52.010;5.546;2023-03-01T01:54:20;11.90;;;7.65;;
67140;SDS011;54058;52.010;5.546;2023-03-01T01:56:51;12.13;;;7.25;;
67140;SDS011;54058;52.010;5.546;2023-03-01T01:59:20;15.10;;;7.60;;
67140;SDS011;54058;52.010;5.546;2023-03-01T02:01:49;11.00;;;7.00;;
67140;SDS011;54058;52.010;5.546;2023-03-01T02:04:16;12.45;;;6.82;;
67140;SDS011;54058;52.010;5.546;2023-03-01T02:06:49;11.18;;;6.72;;
67140;SDS011;54058;52.010;5.546;2023-03-01T02:09:20;10.52;;;6.18;;
67140;SDS011;54058;52.010;5.546;2023-03-01T02:11:48;15.93;;;6.82;;
67140;SDS011;54058;52.010;5.546;2023-03-01T02:14:15;13.93;;;7.00;;
67140;SDS011;54058;52.010;5.546;2023-03-01T02:16:41;12.60;;;6.38;;
67140;SDS011;54058;52.010;5.546;2023-03-01T02:19:07;11.40;;;7.53;;
67140;SDS011;54058;52.010;5.546;2023-03-01T02:21:50;16.50;;;7.35;;
67140;SDS011;54058;52.010;5.546;2023-03-01T02:24:31;12.90;;;6.93;;
67140;SDS011;54058;52.010;5.546;2023-03-01T02:27:40;12.75;;;7.18;;
67140;SDS011;54058;52.010;5.546;2023-03-01T02:30:15;14.57;;;7.25;;
67140;SDS011;54058;52.010;5.546;2023-03-01T02:32:42;12.75;;;7.22;;
67140;SDS011;54058;52.010;5.546;2023-03-01T02:35:09;17.40;;;6.50;;
67140;SDS011;54058;52.010;5.546;2023-03-01T02:37:37;8.27;;;6.18;;
67140;SDS011;54058;52.010;5.546;2023-03-01T02:40:08;11.45;;;6.80;;
67140;SDS011;54058;52.010;5.546;2023-03-01T02:42:46;11.75;;;6.70;;
67140;SDS011;54058;52.010;5.546;2023-03-01T02:45:16;13.00;;;6.68;;
67140;SDS011;54058;52.010;5.546;2023-03-01T02:47:41;13.20;;;7.03;;
67140;SDS011;54058;52.010;5.546;2023-03-01T02:50:13;14.38;;;6.78;;
67140;SDS011;54058;52.010;5.546;2023-03-01T02:55:41;10.02;;;6.90;;
67140;SDS011;54058;52.010;5.546;2023-03-01T02:58:07;9.10;;;6.38;;
67140;SDS011;54058;52.010;5.546;2023-03-01T03:00:36;11.30;;;6.05;;
67140;SDS011;54058;52.010;5.546;2023-03-01T03:03:15;12.73;;;6.63;;
67140;SDS011;54058;52.010;5.546;2023-03-01T03:05:42;10.93;;;6.55;;
67140;SDS011;54058;52.010;5.546;2023-03-01T03:08:08;10.75;;;6.70;;
67140;SDS011;54058;52.010;5.546;2023-03-01T03:10:35;12.82;;;6.78;;
67140;SDS011;54058;52.010;5.546;2023-03-01T03:13:06;9.32;;;6.60;;
67140;SDS011;54058;52.010;5.546;2023-03-01T03:15:33;13.77;;;6.75;;
67140;SDS011;54058;52.010;5.546;2023-03-01T03:20:27;11.00;;;6.25;;
67140;SDS011;54058;52.010;5.546;2023-03-01T03:22:54;9.65;;;6.00;;
67140;SDS011;54058;52.010;5.546;2023-03-01T03:27:47;11.15;;;6.15;;
67140;SDS011;54058;52.010;5.546;2023-03-01T03:30:15;12.30;;;6.30;;
67140;SDS011;54058;52.010;5.546;2023-03-01T03:32:42;14.38;;;6.47;;
67140;SDS011;54058;52.010;5.546;2023-03-01T03:35:17;9.73;;;6.60;;
67140;SDS011;54058;52.010;5.546;2023-03-01T03:37:44;9.90;;;6.13;;
67140;SDS011;54058;52.010;5.546;2023-03-01T03:40:33;11.07;;;6.55;;
67140;SDS011;54058;52.010;5.546;2023-03-01T03:43:03;9.32;;;6.22;;
67140;SDS011;54058;52.010;5.546;2023-03-01T03:45:30;11.82;;;6.50;;
67140;SDS011;54058;52.010;5.546;2023-03-01T03:50:24;9.32;;;6.05;;
67140;SDS011;54058;52.010;5.546;2023-03-01T03:52:49;13.90;;;6.43;;
67140;SDS011;54058;52.010;5.546;2023-03-01T03:55:15;12.05;;;5.80;;
67140;SDS011;54058;52.010;5.546;2023-03-01T03:57:44;8.95;;;6.13;;
67140;SDS011;54058;52.010;5.546;2023-03-01T04:00:19;9.75;;;6.35;;
67140;SDS011;54058;52.010;5.546;2023-03-01T04:02:47;11.43;;;6.13;;
67140;SDS011;54058;52.010;5.546;2023-03-01T04:05:15;12.25;;;6.85;;
67140;SDS011;54058;52.010;5.546;2023-03-01T04:07:44;10.18;;;5.75;;
67140;SDS011;54058;52.010;5.546;2023-03-01T04:10:17;10.68;;;6.13;;
67140;SDS011;54058;52.010;5.546;2023-03-01T04:12:43;7.95;;;5.60;;
67140;SDS011;54058;52.010;5.546;2023-03-01T04:15:10;10.05;;;6.05;;
67140;SDS011;54058;52.010;5.546;2023-03-01T04:17:43;10.18;;;5.80;;
67140;SDS011;54058;52.010;5.546;2023-03-01T04:20:11;12.32;;;6.20;;
67140;SDS011;54058;52.010;5.546;2023-03-01T04:22:42;12.70;;;6.43;;
67140;SDS011;54058;52.010;5.546;2023-03-01T04:25:11;15.02;;;6.55;;
67140;SDS011;54058;52.010;5.546;2023-03-01T04:27:38;10.73;;;6.68;;
67140;SDS011;54058;52.010;5.546;2023-03-01T04:30:05;12.35;;;6.13;;
67140;SDS011;54058;52.010;5.546;2023-03-01T04:32:31;10.48;;;6.20;;
67140;SDS011;54058;52.010;5.546;2023-03-01T04:34:57;10.32;;;6.68;;
67140;SDS011;54058;52.010;5.546;2023-03-01T04:37:22;10.73;;;5.80;;
67140;SDS011;54058;52.010;5.546;2023-03-01T04:39:49;11.18;;;6.82;;
67140;SDS011;54058;52.010;5.546;2023-03-01T04:42:15;8.65;;;6.03;;
67140;SDS011;54058;52.010;5.546;2023-03-01T04:44:42;11.15;;;7.13;;
67140;SDS011;54058;52.010;5.546;2023-03-01T04:47:08;8.88;;;5.97;;
67140;SDS011;54058;52.010;5.546;2023-03-01T04:49:34;15.35;;;6.10;;
67140;SDS011;54058;52.010;5.546;2023-03-01T04:51:59;11.80;;;6.70;;
67140;SDS011;54058;52.010;5.546;2023-03-01T04:54:33;9.38;;;6.45;;
67140;SDS011;54058;52.010;5.546;2023-03-01T04:57:00;13.98;;;6.47;;
67140;SDS011;54058;52.010;5.546;2023-03-01T04:59:27;9.15;;;6.25;;
67140;SDS011;54058;52.010;5.546;2023-03-01T05:01:53;11.07;;;6.70;;
67140;SDS011;54058;52.010;5.546;2023-03-01T05:04:22;9.63;;;6.38;;
67140;SDS011;54058;52.010;5.546;2023-03-01T05:06:49;10.63;;;6.50;;
67140;SDS011;54058;52.010;5.546;2023-03-01T05:09:15;11.85;;;6.57;;
67140;SDS011;54058;52.010;5.546;2023-03-01T05:11:40;8.48;;;6.13;;
67140;SDS011;54058;52.010;5.546;2023-03-01T05:14:06;9.52;;;6.40;;
67140;SDS011;54058;52.010;5.546;2023-03-01T05:16:33;11.47;;;6.60;;
67140;SDS011;54058;52.010;5.546;2023-03-01T05:18:59;13.15;;;6.50;;
67140;SDS011;54058;52.010;5.546;2023-03-01T05:21:25;10.40;;;6.55;;
67140;SDS011;54058;52.010;5.546;2023-03-01T05:23:51;11.43;;;7.07;;
67140;SDS011;54058;52.010;5.546;2023-03-01T05:26:17;9.23;;;6.63;;
67140;SDS011;54058;52.010;5.546;2023-03-01T05:28:44;10.13;;;6.00;;
67140;SDS011;54058;52.010;5.546;2023-03-01T05:31:10;7.22;;;5.65;;
67140;SDS011;54058;52.010;5.546;2023-03-01T05:33:39;12.45;;;6.45;;
67140;SDS011;54058;52.010;5.546;2023-03-01T05:36:06;13.32;;;6.57;;
67140;SDS011;54058;52.010;5.546;2023-03-01T05:38:32;10.93;;;7.97;;
67140;SDS011;54058;52.010;5.546;2023-03-01T05:40:59;11.88;;;6.32;;
67140;SDS011;54058;52.010;5.546;2023-03-01T05:43:24;9.88;;;6.22;;
67140;SDS011;54058;52.010;5.546;2023-03-01T05:45:50;8.75;;;6.28;;
67140;SDS011;54058;52.010;5.546;2023-03-01T05:48:16;10.60;;;5.55;;
67140;SDS011;54058;52.010;5.546;2023-03-01T05:50:44;9.18;;;6.40;;
67140;SDS011;54058;52.010;5.546;2023-03-01T05:53:15;12.73;;;6.25;;
67140;SDS011;54058;52.010;5.546;2023-03-01T05:55:42;9.73;;;6.43;;
67140;SDS011;54058;52.010;5.546;2023-03-01T05:58:12;10.32;;;6.38;;
67140;SDS011;54058;52.010;5.546;2023-03-01T06:00:40;10.73;;;6.28;;
67140;SDS011;54058;52.010;5.546;2023-03-01T06:03:08;10.10;;;6.32;;
67140;SDS011;54058;52.010;5.546;2023-03-01T06:05:36;10.45;;;6.15;;
67140;SDS011;54058;52.010;5.546;2023-03-01T06:08:02;15.55;;;6.28;;
67140;SDS011;54058;52.010;5.546;2023-03-01T06:10:28;8.38;;;6.28;;
67140;SDS011;54058;52.010;5.546;2023-03-01T06:12:54;10.80;;;6.22;;
67140;SDS011;54058;52.010;5.546;2023-03-01T06:15:20;9.15;;;5.95;;
67140;SDS011;54058;52.010;5.546;2023-03-01T06:17:46;10.68;;;6.30;;
67140;SDS011;54058;52.010;5.546;2023-03-01T06:20:13;11.77;;;6.32;;
67140;SDS011;54058;52.010;5.546;2023-03-01T06:22:49;9.57;;;6.03;;
67140;SDS011;54058;52.010;5.546;2023-03-01T06:25:17;9.70;;;6.45;;
67140;SDS011;54058;52.010;5.546;2023-03-01T06:27:45;13.52;;;6.80;;
67140;SDS011;54058;52.010;5.546;2023-03-01T06:30:12;11.75;;;6.50;;
67140;SDS011;54058;52.010;5.546;2023-03-01T06:32:40;11.70;;;7.03;;
67140;SDS011;54058;52.010;5.546;2023-03-01T06:35:09;10.73;;;6.47;;
67140;SDS011;54058;52.010;5.546;2023-03-01T06:37:36;14.15;;;6.60;;
67140;SDS011;54058;52.010;5.546;2023-03-01T06:40:03;11.27;;;6.38;;
67140;SDS011;54058;52.010;5.546;2023-03-01T06:42:33;13.30;;;6.95;;
67140;SDS011;54058;52.010;5.546;2023-03-01T06:44:59;9.93;;;6.32;;
67140;SDS011;54058;52.010;5.546;2023-03-01T06:47:25;9.68;;;6.50;;
67140;SDS011;54058;52.010;5.546;2023-03-01T06:49:51;9.68;;;6.57;;
67140;SDS011;54058;52.010;5.546;2023-03-01T06:52:16;11.90;;;7.03;;
67140;SDS011;54058;52.010;5.546;2023-03-01T06:54:42;9.65;;;6.32;;
67140;SDS011;54058;52.010;5.546;2023-03-01T06:57:07;9.70;;;6.32;;
67140;SDS011;54058;52.010;5.546;2023-03-01T06:59:33;10.90;;;5.90;;
67140;SDS011;54058;52.010;5.546;2023-03-01T07:01:59;8.45;;;5.93;;
67140;SDS011;54058;52.010;5.546;2023-03-01T07:04:24;10.27;;;6.25;;
67140;SDS011;54058;52.010;5.546;2023-03-01T07:06:53;10.93;;;6.38;;
67140;SDS011;54058;52.010;5.546;2023-03-01T07:09:20;11.38;;;6.60;;
67140;SDS011;54058;52.010;5.546;2023-03-01T07:11:47;10.55;;;6.22;;
67140;SDS011;54058;52.010;5.546;2023-03-01T07:14:13;9.65;;;6.15;;
67140;SDS011;54058;52.010;5.546;2023-03-01T07:16:39;11.50;;;6.53;;
67140;SDS011;54058;52.010;5.546;2023-03-01T07:19:04;11.75;;;6.30;;
67140;SDS011;54058;52.010;5.546;2023-03-01T07:21:30;10.98;;;6.60;;
67140;SDS011;54058;52.010;5.546;2023-03-01T07:23:56;12.07;;;6.78;;
67140;SDS011;54058;52.010;5.546;2023-03-01T07:26:22;11.40;;;6.80;;
67140;SDS011;54058;52.010;5.546;2023-03-01T07:28:48;8.05;;;5.75;;
67140;SDS011;54058;52.010;5.546;2023-03-01T07:31:13;9.82;;;6.53;;
67140;SDS011;54058;52.010;5.546;2023-03-01T07:33:39;15.77;;;7.13;;
67140;SDS011;54058;52.010;5.546;2023-03-01T07:36:05;10.23;;;6.25;;
67140;SDS011;54058;52.010;5.546;2023-03-01T07:38:31;9.37;;;5.83;;
67140;SDS011;54058;52.010;5.546;2023-03-01T07:40:58;12.27;;;7.07;;
67140;SDS011;54058;52.010;5.546;2023-03-01T07:43:25;9.45;;;6.50;;
67140;SDS011;54058;52.010;5.546;2023-03-01T07:45:51;8.98;;;6.78;;
67140;SDS011;54058;52.010;5.546;2023-03-01T07:48:17;11.15;;;6.75;;
67140;SDS011;54058;52.010;5.546;2023-03-01T07:50:43;12.32;;;7.15;;
67140;SDS011;54058;52.010;5.546;2023-03-01T07:53:09;12.68;;;6.93;;
67140;SDS011;54058;52.010;5.546;2023-03-01T07:55:35;10.90;;;6.55;;
67140;SDS011;54058;52.010;5.546;2023-03-01T07:58:01;14.95;;;7.70;;
67140;SDS011;54058;52.010;5.546;2023-03-01T08:00:26;10.27;;;7.57;;
67140;SDS011;54058;52.010;5.546;2023-03-01T08:02:52;15.25;;;8.23;;
67140;SDS011;54058;52.010;5.546;2023-03-01T08:05:18;15.02;;;7.57;;
67140;SDS011;54058;52.010;5.546;2023-03-01T08:07:43;18.58;;;7.38;;
67140;SDS011;54058;52.010;5.546;2023-03-01T08:10:09;11.32;;;7.32;;
67140;SDS011;54058;52.010;5.546;2023-03-01T08:12:35;13.85;;;7.25;;
67140;SDS011;54058;52.010;5.546;2023-03-01T08:15:01;14.60;;;7.47;;
67140;SDS011;54058;52.010;5.546;2023-03-01T08:17:27;16.75;;;6.45;;
67140;SDS011;54058;52.010;5.546;2023-03-01T08:19:52;12.00;;;7.38;;
67140;SDS011;54058;52.010;5.546;2023-03-01T08:22:18;11.68;;;7.47;;
67140;SDS011;54058;52.010;5.546;2023-03-01T08:24:44;13.27;;;6.95;;
67140;SDS011;54058;52.010;5.546;2023-03-01T08:27:09;15.07;;;9.35;;
67140;SDS011;54058;52.010;5.546;2023-03-01T08:29:37;12.32;;;7.05;;
67140;SDS011;54058;52.010;5.546;2023-03-01T08:32:02;13.18;;;7.45;;
67140;SDS011;54058;52.010;5.546;2023-03-01T08:34:28;21.90;;;8.93;;
67140;SDS011;54058;52.010;5.546;2023-03-01T08:36:56;13.38;;;7.20;;
67140;SDS011;54058;52.010;5.546;2023-03-01T08:39:21;11.85;;;6.97;;
67140;SDS011;54058;52.010;5.546;2023-03-01T08:41:47;14.73;;;8.00;;
67140;SDS011;54058;52.010;5.546;2023-03-01T08:44:13;10.43;;;7.00;;
67140;SDS011;54058;52.010;5.546;2023-03-01T08:46:41;10.25;;;6.78;;
67140;SDS011;54058;52.010;5.546;2023-03-01T08:49:09;11.07;;;7.22;;
67140;SDS011;54058;52.010;5.546;2023-03-01T08:51:38;12.35;;;7.00;;
67140;SDS011;54058;52.010;5.546;2023-03-01T08:54:04;11.85;;;6.85;;
67140;SDS011;54058;52.010;5.546;2023-03-01T08:56:31;11.93;;;5.55;;
67140;SDS011;54058;52.010;5.546;2023-03-01T08:58:57;11.15;;;5.57;;
67140;SDS011;54058;52.010;5.546;2023-03-01T09:01:23;8.77;;;5.85;;
67140;SDS011;54058;52.010;5.546;2023-03-01T09:03:49;16.17;;;6.18;;
67140;SDS011;54058;52.010;5.546;2023-03-01T09:06:14;11.43;;;6.30;;
67140;SDS011;54058;52.010;5.546;2023-03-01T09:08:45;7.90;;;5.05;;
67140;SDS011;54058;52.010;5.546;2023-03-01T09:11:15;9.45;;;5.55;;
67140;SDS011;54058;52.010;5.546;2023-03-01T09:13:42;10.07;;;4.70;;
67140;SDS011;54058;52.010;5.546;2023-03-01T09:16:09;6.25;;;5.32;;
67140;SDS011;54058;52.010;5.546;2023-03-01T09:23:42;10.00;;;4.30;;
67140;SDS011;54058;52.010;5.546;2023-03-01T09:26:10;7.15;;;3.95;;
67140;SDS011;54058;52.010;5.546;2023-03-01T09:28:38;8.85;;;4.60;;
67140;SDS011;54058;52.010;5.546;2023-03-01T09:31:07;5.72;;;3.60;;
67140;SDS011;54058;52.010;5.546;2023-03-01T09:33:33;4.97;;;3.42;;
67140;SDS011;54058;52.010;5.546;2023-03-01T09:36:00;7.00;;;3.40;;
67140;SDS011;54058;52.010;5.546;2023-03-01T09:38:30;6.63;;;3.70;;
67140;SDS011;54058;52.010;5.546;2023-03-01T09:40:56;6.88;;;3.58;;
67140;SDS011;54058;52.010;5.546;2023-03-01T09:45:48;9.25;;;4.97;;
67140;SDS011;54058;52.010;5.546;2023-03-01T09:48:18;9.63;;;4.43;;
67140;SDS011;54058;52.010;5.546;2023-03-01T09:50:47;9.18;;;3.72;;
67140;SDS011;54058;52.010;5.546;2023-03-01T09:53:15;6.43;;;3.63;;
67140;SDS011;54058;52.010;5.546;2023-03-01T09:55:43;5.68;;;4.05;;
67140;SDS011;54058;52.010;5.546;2023-03-01T10:04:00;8.55;;;4.43;;
67140;SDS011;54058;52.010;5.546;2023-03-01T10:09:41;5.95;;;3.03;;
67140;SDS011;54058;52.010;5.546;2023-03-01T10:12:19;8.65;;;4.47;;
67140;SDS011;54058;52.010;5.546;2023-03-01T10:20:22;7.07;;;3.75;;
67140;SDS011;54058;52.010;5.546;2023-03-01T10:22:49;6.75;;;3.35;;
67140;SDS011;54058;52.010;5.546;2023-03-01T10:27:52;4.00;;;2.78;;
67140;SDS011;54058;52.010;5.546;2023-03-01T10:33:03;6.13;;;3.00;;
67140;SDS011;54058;52.010;5.546;2023-03-01T10:35:36;5.35;;;2.45;;
67140;SDS011;54058;52.010;5.546;2023-03-01T10:38:03;7.10;;;3.90;;
67140;SDS011;54058;52.010;5.546;2023-03-01T10:40:46;5.05;;;3.08;;
67140;SDS011;54058;52.010;5.546;2023-03-01T10:43:26;5.30;;;3.40;;
67140;SDS011;54058;52.010;5.546;2023-03-01T10:45:57;8.63;;;3.47;;
67140;SDS011;54058;52.010;5.546;2023-03-01T10:48:23;4.13;;;2.78;;
67140;SDS011;54058;52.010;5.546;2023-03-01T10:53:36;4.43;;;3.00;;
67140;SDS011;54058;52.010;5.546;2023-03-01T10:56:06;6.30;;;3.38;;
67140;SDS011;54058;52.010;5.546;2023-03-01T10:58:34;5.18;;;3.13;;
67140;SDS011;54058;52.010;5.546;2023-03-01T11:01:03;5.32;;;3.30;;
67140;SDS011;54058;52.010;5.546;2023-03-01T11:03:32;5.43;;;3.80;;
67140;SDS011;54058;52.010;5.546;2023-03-01T11:08:39;5.10;;;3.60;;
67140;SDS011;54058;52.010;5.546;2023-03-01T11:13:52;4.90;;;2.80;;
67140;SDS011;54058;52.010;5.546;2023-03-01T11:16:27;8.23;;;3.17;;
67140;SDS011;54058;52.010;5.546;2023-03-01T11:19:15;8.00;;;3.65;;
67140;SDS011;54058;52.010;5.546;2023-03-01T11:24:48;5.82;;;3.42;;
67140;SDS011;54058;52.010;5.546;2023-03-01T11:27:23;5.28;;;3.50;;
67140;SDS011;54058;52.010;5.546;2023-03-01T11:29:59;7.00;;;3.47;;
67140;SDS011;54058;52.010;5.546;2023-03-01T11:32:42;5.97;;;3.80;;
67140;SDS011;54058;52.010;5.546;2023-03-01T11:35:32;7.35;;;3.42;;
67140;SDS011;54058;52.010;5.546;2023-03-01T11:38:08;5.97;;;3.70;;
67140;SDS011;54058;52.010;5.546;2023-03-01T11:43:47;6.60;;;4.07;;
67140;SDS011;54058;52.010;5.546;2023-03-01T11:51:48;5.05;;;3.13;;
67140;SDS011;54058;52.010;5.546;2023-03-01T11:57:20;6.22;;;3.13;;
67140;SDS011;54058;52.010;5.546;2023-03-01T12:05:44;3.72;;;2.53;;
67140;SDS011;54058;52.010;5.546;2023-03-01T12:08:33;4.22;;;2.88;;
67140;SDS011;54058;52.010;5.546;2023-03-01T12:22:31;5.57;;;2.95;;
67140;SDS011;54058;52.010;5.546;2023-03-01T12:30:35;4.38;;;3.10;;
67140;SDS011;54058;52.010;5.546;2023-03-01T12:38:32;5.72;;;3.45;;
67140;SDS011;54058;52.010;5.546;2023-03-01T12:46:55;5.97;;;2.97;;
67140;SDS011;54058;52.010;5.546;2023-03-01T12:49:33;4.95;;;2.85;;
67140;SDS011;54058;52.010;5.546;2023-03-01T12:52:10;4.15;;;2.88;;
67140;SDS011;54058;52.010;5.546;2023-03-01T12:54:51;6.53;;;3.17;;
67140;SDS011;54058;52.010;5.546;2023-03-01T13:00:01;3.35;;;2.92;;
67140;SDS011;54058;52.010;5.546;2023-03-01T13:02:52;4.82;;;3.45;;
67140;SDS011;54058;52.010;5.546;2023-03-01T13:05:36;5.13;;;3.20;;
67140;SDS011;54058;52.010;5.546;2023-03-01T13:08:22;4.88;;;3.50;;
67140;SDS011;54058;52.010;5.546;2023-03-01T13:11:04;5.78;;;3.50;;
67140;SDS011;54058;52.010;5.546;2023-03-01T13:13:35;7.38;;;3.63;;
67140;SDS011;54058;52.010;5.546;2023-03-01T13:19:15;3.92;;;3.10;;
67140;SDS011;54058;52.010;5.546;2023-03-01T13:21:42;5.20;;;3.20;;
67140;SDS011;54058;52.010;5.546;2023-03-01T13:24:28;5.72;;;3.42;;
67140;SDS011;54058;52.010;5.546;2023-03-01T13:29:46;8.30;;;3.13;;
67140;SDS011;54058;52.010;5.546;2023-03-01T13:34:57;5.65;;;3.20;;
67140;SDS011;54058;52.010;5.546;2023-03-01T13:37:29;10.38;;;3.47;;
67140;SDS011;54058;52.010;5.546;2023-03-01T13:40:07;5.07;;;3.05;;
67140;SDS011;54058;52.010;5.546;2023-03-01T13:42:50;4.43;;;3.28;;
67140;SDS011;54058;52.010;5.546;2023-03-01T13:48:16;4.90;;;3.08;;
67140;SDS011;54058;52.010;5.546;2023-03-01T13:50:50;8.07;;;3.60;;
67140;SDS011;54058;52.010;5.546;2023-03-01T13:53:20;4.85;;;3.08;;
67140;SDS011;54058;52.010;5.546;2023-03-01T13:55:59;4.63;;;3.15;;
67140;SDS011;54058;52.010;5.546;2023-03-01T13:58:43;4.55;;;3.20;;
67140;SDS011;54058;52.010;5.546;2023-03-01T14:01:20;7.70;;;2.85;;
67140;SDS011;54058;52.010;5.546;2023-03-01T14:03:49;9.90;;;3.65;;
67140;SDS011;54058;52.010;5.546;2023-03-01T14:06:16;7.82;;;3.50;;
67140;SDS011;54058;52.010;5.546;2023-03-01T14:08:45;8.73;;;3.85;;
67140;SDS011;54058;52.010;5.546;2023-03-01T14:11:31;3.15;;;2.75;;
67140;SDS011;54058;52.010;5.546;2023-03-01T14:19:54;4.75;;;3.33;;
67140;SDS011;54058;52.010;5.546;2023-03-01T14:22:28;6.22;;;3.50;;
67140;SDS011;54058;52.010;5.546;2023-03-01T14:25:05;4.75;;;3.30;;
67140;SDS011;54058;52.010;5.546;2023-03-01T14:27:42;5.07;;;3.45;;
67140;SDS011;54058;52.010;5.546;2023-03-01T14:30:12;6.47;;;3.42;;
67140;SDS011;54058;52.010;5.546;2023-03-01T14:32:52;5.60;;;3.22;;
67140;SDS011;54058;52.010;5.546;2023-03-01T14:35:23;7.55;;;3.50;;
67140;SDS011;54058;52.010;5.546;2023-03-01T14:37:51;4.97;;;2.92;;
67140;SDS011;54058;52.010;5.546;2023-03-01T14:40:26;4.63;;;3.28;;
67140;SDS011;54058;52.010;5.546;2023-03-01T14:43:01;8.90;;;3.85;;
67140;SDS011;54058;52.010;5.546;2023-03-01T14:45:34;7.35;;;3.60;;
67140;SDS011;54058;52.010;5.546;2023-03-01T14:48:01;4.70;;;3.10;;
67140;SDS011;54058;52.010;5.546;2023-03-01T14:50:29;3.72;;;2.90;;
67140;SDS011;54058;52.010;5.546;2023-03-01T14:52:58;4.35;;;2.90;;
67140;SDS011;54058;52.010;5.546;2023-03-01T14:55:30;6.72;;;3.00;;
67140;SDS011;54058;52.010;5.546;2023-03-01T14:58:05;5.13;;;2.90;;
67140;SDS011;54058;52.010;5.546;2023-03-01T15:00:38;5.28;;;3.30;;
67140;SDS011;54058;52.010;5.546;2023-03-01T15:03:14;3.65;;;2.92;;
67140;SDS011;54058;52.010;5.546;2023-03-01T15:05:50;7.78;;;3.00;;
67140;SDS011;54058;52.010;5.546;2023-03-01T15:08:17;4.30;;;2.78;;
67140;SDS011;54058;52.010;5.546;2023-03-01T15:10:55;4.95;;;3.47;;
67140;SDS011;54058;52.010;5.546;2023-03-01T15:18:47;6.18;;;2.55;;
67140;SDS011;54058;52.010;5.546;2023-03-01T15:21:22;6.32;;;3.20;;
67140;SDS011;54058;52.010;5.546;2023-03-01T15:23:51;9.35;;;3.83;;
67140;SDS011;54058;52.010;5.546;2023-03-01T15:28:49;5.10;;;3.55;;
67140;SDS011;54058;52.010;5.546;2023-03-01T15:31:53;8.85;;;3.60;;
67140;SDS011;54058;52.010;5.546;2023-03-01T15:34:25;5.25;;;3.28;;
67140;SDS011;54058;52.010;5.546;2023-03-01T15:36:58;5.80;;;3.08;;
67140;SDS011;54058;52.010;5.546;2023-03-01T15:45:09;6.70;;;3.33;;
67140;SDS011;54058;52.010;5.546;2023-03-01T15:47:35;5.38;;;2.83;;
67140;SDS011;54058;52.010;5.546;2023-03-01T15:50:03;5.90;;;2.63;;
67140;SDS011;54058;52.010;5.546;2023-03-01T15:55:06;6.22;;;2.88;;
67140;SDS011;54058;52.010;5.546;2023-03-01T15:57:48;7.95;;;3.05;;
67140;SDS011;54058;52.010;5.546;2023-03-01T16:00:14;4.95;;;3.35;;
67140;SDS011;54058;52.010;5.546;2023-03-01T16:02:42;5.25;;;3.55;;
67140;SDS011;54058;52.010;5.546;2023-03-01T16:05:28;3.78;;;2.53;;
67140;SDS011;54058;52.010;5.546;2023-03-01T16:07:59;7.47;;;3.50;;
67140;SDS011;54058;52.010;5.546;2023-03-01T16:10:26;18.25;;;4.25;;
67140;SDS011;54058;52.010;5.546;2023-03-01T16:12:52;6.20;;;3.13;;
67140;SDS011;54058;52.010;5.546;2023-03-01T16:15:20;6.30;;;2.83;;
67140;SDS011;54058;52.010;5.546;2023-03-01T16:17:47;5.78;;;3.03;;
67140;SDS011;54058;52.010;5.546;2023-03-01T16:20:12;7.80;;;3.53;;
67140;SDS011;54058;52.010;5.546;2023-03-01T16:22:41;7.40;;;3.63;;
67140;SDS011;54058;52.010;5.546;2023-03-01T16:25:08;12.77;;;4.38;;
67140;SDS011;54058;52.010;5.546;2023-03-01T16:27:35;5.40;;;3.35;;
67140;SDS011;54058;52.010;5.546;2023-03-01T16:30:01;6.07;;;3.38;;
67140;SDS011;54058;52.010;5.546;2023-03-01T16:32:26;10.25;;;3.45;;
67140;SDS011;54058;52.010;5.546;2023-03-01T16:34:52;6.82;;;4.05;;
67140;SDS011;54058;52.010;5.546;2023-03-01T16:37:18;9.23;;;3.63;;
67140;SDS011;54058;52.010;5.546;2023-03-01T16:39:44;5.50;;;3.53;;
67140;SDS011;54058;52.010;5.546;2023-03-01T16:42:09;5.93;;;3.10;;
67140;SDS011;54058;52.010;5.546;2023-03-01T16:44:35;5.80;;;3.38;;
67140;SDS011;54058;52.010;5.546;2023-03-01T16:47:01;6.25;;;3.20;;
67140;SDS011;54058;52.010;5.546;2023-03-01T16:49:26;6.85;;;3.28;;
67140;SDS011;54058;52.010;5.546;2023-03-01T16:51:53;8.32;;;3.85;;
67140;SDS011;54058;52.010;5.546;2023-03-01T16:54:19;6.30;;;4.32;;
67140;SDS011;54058;52.010;5.546;2023-03-01T16:56:44;7.28;;;4.10;;
67140;SDS011;54058;52.010;5.546;2023-03-01T16:59:10;10.75;;;4.63;;
67140;SDS011;54058;52.010;5.546;2023-03-01T17:01:35;8.70;;;5.00;;
67140;SDS011;54058;52.010;5.546;2023-03-01T17:04:06;7.63;;;4.60;;
67140;SDS011;54058;52.010;5.546;2023-03-01T17:06:34;5.97;;;4.18;;